Time;durP1;ratioP1;P1;durP2;ratioP2;P2;SDS_P1;SDS_P2;PMS_P1;PMS_P2;Temp;Humidity;BMP_temperature;BMP_pressure;BME280_temperature;BME280_humidity;BME280_pressure;Samples;Min_cycle;Max_cycle;Signal;HPM_P1;HPM_P2
2022/12/21 00:00:52;;;;;;;51.27;46.87;;;3.70;99.90;;;;;;5086711;28;20231;-83
2022/12/21 00:03:18;;;;;;;49.13;45.47;;;3.70;99.90;;;;;;5086350;28;20185;-83
2022/12/21 00:05:44;;;;;;;50.77;47.10;;;3.70;99.90;;;;;;5084752;28;20204;-83
2022/12/21 00:08:09;;;;;;;54.57;50.70;;;3.80;99.90;;;;;;5084537;28;20217;-83
2022/12/21 00:10:35;;;;;;;35.50;32.63;;;3.70;99.90;;;;;;5074335;28;20178;-82
2022/12/21 00:13:01;;;;;;;47.47;43.63;;;3.70;99.90;;;;;;5064154;28;20230;-83
2022/12/21 00:15:27;;;;;;;36.53;33.50;;;3.70;99.90;;;;;;5064054;28;20347;-82
2022/12/21 00:17:53;;;;;;;34.00;31.00;;;3.70;99.90;;;;;;5063101;28;20197;-83
2022/12/21 00:20:19;;;;;;;36.33;33.43;;;3.70;99.90;;;;;;5067516;28;20193;-82
2022/12/21 00:22:44;;;;;;;36.10;33.17;;;3.70;99.90;;;;;;5067582;28;20178;-82
2022/12/21 00:25:10;;;;;;;38.83;35.97;;;3.70;99.90;;;;;;5071155;28;20219;-82
2022/12/21 00:27:36;;;;;;;30.50;28.00;;;3.70;99.90;;;;;;5076446;28;20745;-82
2022/12/21 00:30:02;;;;;;;29.90;27.43;;;3.70;99.90;;;;;;5077747;28;20255;-81
2022/12/21 00:32:28;;;;;;;34.77;31.90;;;3.70;99.90;;;;;;5080332;28;20195;-82
2022/12/21 00:34:53;;;;;;;29.83;27.30;;;3.70;99.90;;;;;;5095299;28;20193;-80
2022/12/21 00:37:19;;;;;;;23.87;21.67;;;3.70;99.90;;;;;;5098575;28;20192;-80
2022/12/21 00:39:45;;;;;;;27.30;25.10;;;3.80;99.90;;;;;;5078209;28;20193;-82
2022/12/21 00:42:14;;;;;;;32.80;30.13;;;3.80;99.90;;;;;;5071090;28;20570;-82
2022/12/21 00:44:40;;;;;;;45.67;42.33;;;3.80;99.90;;;;;;5065996;28;20205;-81
2022/12/21 00:47:06;;;;;;;22.70;17.90;;;3.80;99.90;;;;;;5065002;28;20197;-82
2022/12/21 00:49:31;;;;;;;28.87;26.07;;;3.90;99.90;;;;;;5066804;28;20248;-81
2022/12/21 00:51:58;;;;;;;21.80;19.63;;;3.90;99.90;;;;;;5067315;28;20196;-82
2022/12/21 00:54:24;;;;;;;16.10;14.37;;;3.80;99.90;;;;;;5076996;28;20177;-82
2022/12/21 00:56:51;;;;;;;22.10;20.00;;;3.90;99.90;;;;;;5080855;28;20577;-81
2022/12/21 00:59:17;;;;;;;20.30;18.20;;;3.80;99.90;;;;;;5064112;28;20193;-81
2022/12/21 01:01:42;;;;;;;25.00;22.80;;;3.80;99.90;;;;;;5064238;28;20178;-81
2022/12/21 01:04:08;;;;;;;22.67;20.57;;;3.80;99.90;;;;;;5064135;28;20228;-81
2022/12/21 01:06:35;;;;;;;21.33;19.17;;;3.80;99.90;;;;;;5076414;28;20212;-81
2022/12/21 01:09:02;;;;;;;24.77;22.60;;;3.80;99.90;;;;;;5085625;28;20214;-82
2022/12/21 01:11:28;;;;;;;30.17;27.57;;;3.80;99.90;;;;;;5086716;28;20188;-82
2022/12/21 01:13:56;;;;;;;37.93;35.07;;;3.80;99.90;;;;;;5079758;28;20531;-82
2022/12/21 01:16:26;;;;;;;32.17;29.63;;;3.90;99.90;;;;;;5078682;22;20234;-77
2022/12/21 01:18:52;;;;;;;41.97;38.93;;;3.90;99.90;;;;;;5052610;28;20186;-77
2022/12/21 01:21:24;;;;;;;37.53;34.73;;;4.00;99.90;;;;;;5051561;28;20192;-76
2022/12/21 01:23:50;;;;;;;39.17;36.03;;;3.90;99.90;;;;;;5052005;28;20194;-77
2022/12/21 01:26:17;;;;;;;37.30;34.33;;;4.00;99.90;;;;;;5038503;28;20206;-76
2022/12/21 01:28:43;;;;;;;35.83;32.83;;;4.00;99.90;;;;;;5032613;28;20213;-76
2022/12/21 01:31:10;;;;;;;37.23;34.33;;;4.00;99.90;;;;;;5031868;28;20185;-76
2022/12/21 01:33:36;;;;;;;34.97;32.43;;;4.10;99.90;;;;;;5031356;28;20274;-76
2022/12/21 01:36:07;;;;;;;45.93;42.47;;;4.10;99.90;;;;;;5032993;28;20286;-77
2022/12/21 01:38:34;;;;;;;46.63;43.43;;;4.10;99.90;;;;;;5031561;28;20589;-77
2022/12/21 01:41:01;;;;;;;82.23;76.87;;;4.10;99.90;;;;;;5032008;28;20647;-76
2022/12/21 01:43:42;;;;;;;61.80;57.03;;;4.10;99.90;;;;;;5033045;28;20252;-75
2022/12/21 01:46:21;;;;;;;48.07;43.97;;;4.10;99.90;;;;;;5032678;28;20203;-75
2022/12/21 01:49:27;;;;;;;42.07;38.27;;;4.20;99.90;;;;;;5022594;28;20218;-75
2022/12/21 01:52:02;;;;;;;62.30;57.40;;;4.20;99.90;;;;;;5013208;28;20183;-74
2022/12/21 01:54:56;;;;;;;56.73;51.97;;;4.20;99.90;;;;;;5011209;28;20179;-74
2022/12/21 01:57:23;;;;;;;52.43;47.77;;;4.20;99.90;;;;;;5012196;28;20188;-74
2022/12/21 01:59:54;;;;;;;37.07;33.17;;;4.20;99.90;;;;;;5012889;28;20217;-75
2022/12/21 02:02:27;;;;;;;61.90;56.77;;;4.10;99.90;;;;;;5016656;28;20213;-75
2022/12/21 02:04:56;;;;;;;64.20;59.10;;;4.10;99.90;;;;;;5032437;28;20179;-75
2022/12/21 02:07:22;;;;;;;37.23;33.30;;;4.10;99.90;;;;;;5030986;28;20190;-75
2022/12/21 02:09:50;;;;;;;47.03;42.53;;;4.10;99.90;;;;;;5029838;28;20179;-74
2022/12/21 02:12:16;;;;;;;29.53;26.43;;;4.10;99.90;;;;;;5031799;28;20178;-74
2022/12/21 02:14:45;;;;;;;31.10;27.60;;;4.10;99.90;;;;;;5031265;28;20261;-74
2022/12/21 02:17:23;;;;;;;41.07;36.80;;;4.10;99.90;;;;;;5032160;28;20179;-74
2022/12/21 02:20:26;;;;;;;32.90;28.70;;;4.10;99.90;;;;;;5027833;28;20567;-75
2022/12/21 02:22:57;;;;;;;39.67;35.73;;;4.00;99.90;;;;;;5012800;28;20191;-74
2022/12/21 02:25:34;;;;;;;33.07;29.60;;;4.10;99.90;;;;;;5011222;28;20304;-74
2022/12/21 02:28:29;;;;;;;37.77;34.27;;;4.10;99.90;;;;;;5010967;28;20266;-74
2022/12/21 02:31:23;;;;;;;28.17;25.33;;;4.10;99.90;;;;;;4982359;28;20187;-74
2022/12/21 02:33:59;;;;;;;27.90;23.80;;;4.20;99.90;;;;;;5015735;28;20683;-73
2022/12/21 02:36:52;;;;;;;29.27;26.13;;;4.20;99.90;;;;;;5011054;28;20203;-74
2022/12/21 02:39:18;;;;;;;27.30;24.60;;;4.20;99.90;;;;;;5011092;28;20187;-74
2022/12/21 02:44:12;;;;;;;27.77;24.87;;;4.20;99.90;;;;;;5011032;28;20194;-74
2022/12/21 02:45:07;;;;;;;24.23;21.77;;;4.30;99.90;;;;;;5011777;28;20215;-75
2022/12/21 02:47:44;;;;;;;25.67;23.13;;;4.40;99.90;;;;;;5024407;28;20273;-75
2022/12/21 02:50:13;;;;;;;26.40;23.37;;;4.40;99.90;;;;;;5030493;28;20559;-74
2022/12/21 02:52:57;;;;;;;24.17;21.53;;;4.50;99.90;;;;;;5030513;28;20193;-75
2022/12/21 02:55:26;;;;;;;24.43;22.13;;;4.50;99.90;;;;;;5030072;28;20212;-74
2022/12/21 02:58:10;;;;;;;29.33;26.40;;;4.50;99.90;;;;;;5031237;28;20218;-74
2022/12/21 03:00:40;;;;;;;26.00;23.40;;;4.60;99.90;;;;;;5024360;28;20559;-74
2022/12/21 03:03:50;;;;;;;26.33;24.03;;;4.60;99.90;;;;;;5011776;28;20725;-73
2022/12/21 03:06:34;;;;;;;24.23;22.13;;;4.70;99.90;;;;;;5010623;28;20261;-74
2022/12/21 03:09:37;;;;;;;28.07;25.30;;;4.70;99.90;;;;;;5011382;28;20211;-74
2022/12/21 03:12:07;;;;;;;38.27;35.10;;;4.80;99.90;;;;;;5011605;28;20186;-73
2022/12/21 03:14:53;;;;;;;61.97;57.83;;;4.80;99.90;;;;;;5015972;28;20171;-74
2022/12/21 03:17:43;;;;;;;50.17;46.37;;;4.70;99.90;;;;;;5031243;28;20183;-73
2022/12/21 03:20:12;;;;;;;87.77;82.43;;;4.80;99.90;;;;;;5031605;28;20182;-74
2022/12/21 03:22:54;;;;;;;61.00;56.87;;;4.70;99.90;;;;;;5030417;28;20178;-74
2022/12/21 03:25:30;;;;;;;30.47;27.47;;;4.70;99.90;;;;;;5030957;28;20257;-74
2022/12/21 03:28:03;;;;;;;74.23;69.53;;;4.60;99.90;;;;;;5029092;28;20258;-74
2022/12/21 03:30:33;;;;;;;58.93;54.63;;;4.70;99.90;;;;;;5031068;28;20265;-74
2022/12/21 03:33:05;;;;;;;67.73;63.43;;;4.70;99.90;;;;;;5030075;28;20171;-74
2022/12/21 03:35:40;;;;;;;62.30;58.00;;;4.70;99.90;;;;;;5031114;28;20202;-74
2022/12/21 03:38:13;;;;;;;29.00;26.23;;;4.70;99.90;;;;;;5029604;28;20289;-74
2022/12/21 03:40:42;;;;;;;25.30;22.47;;;4.70;99.90;;;;;;5030000;28;20182;-73
2022/12/21 03:43:18;;;;;;;26.10;19.93;;;4.70;99.90;;;;;;5018644;28;20187;-74
2022/12/21 03:45:53;;;;;;;21.17;16.80;;;4.60;99.90;;;;;;5011324;28;20552;-74
2022/12/21 03:48:38;;;;;;;22.27;19.47;;;4.50;99.90;;;;;;5009783;28;20238;-74
2022/12/21 03:51:20;;;;;;;29.50;26.77;;;4.50;99.90;;;;;;5011391;28;20194;-74
2022/12/21 03:53:57;;;;;;;47.10;43.43;;;4.50;99.90;;;;;;5011298;28;20730;-74
2022/12/21 03:56:34;;;;;;;63.77;59.53;;;4.50;99.90;;;;;;5014195;28;20666;-73
2022/12/21 03:59:00;;;;;;;67.03;62.57;;;4.60;99.90;;;;;;5029968;28;20650;-74
2022/12/21 04:01:45;;;;;;;81.97;77.17;;;4.60;99.90;;;;;;5029919;28;20187;-73
2022/12/21 04:04:54;;;;;;;38.47;35.73;;;4.60;99.90;;;;;;5026769;28;20198;-73
2022/12/21 04:07:24;;;;;;;41.23;38.20;;;4.70;99.90;;;;;;5040079;28;20185;-73
2022/12/21 04:09:59;;;;;;;37.17;33.90;;;4.80;99.90;;;;;;5049449;28;20182;-73
2022/12/21 04:12:37;;;;;;;41.13;38.03;;;4.80;99.90;;;;;;5027563;28;20183;-73
2022/12/21 04:15:18;;;;;;;38.90;35.90;;;4.90;99.90;;;;;;5025868;28;20289;-73
2022/12/21 04:17:46;;;;;;;38.00;34.33;;;5.00;99.90;;;;;;5028926;28;20297;-73
2022/12/21 04:20:20;;;;;;;38.13;34.90;;;5.00;99.90;;;;;;5029668;28;20233;-74
2022/12/21 04:28:26;;;;;;;42.60;39.07;;;5.10;99.90;;;;;;5035004;28;20674;-73
2022/12/21 04:30:52;;;;;;;37.80;34.93;;;5.20;99.90;;;;;;5040475;28;20185;-73
2022/12/21 04:33:20;;;;;;;27.87;25.80;;;5.30;99.90;;;;;;5010697;28;20556;-72
2022/12/21 04:38:35;;;;;;;14.63;13.30;;;5.60;99.90;;;;;;5010824;28;20188;-73
2022/12/21 04:41:01;;;;;;;12.30;11.03;;;5.90;99.90;;;;;;5010995;28;20278;-73
2022/12/21 04:43:27;;;;;;;14.07;11.47;;;6.00;99.90;;;;;;5014401;28;20195;-73
2022/12/21 04:46:05;;;;;;;12.67;11.57;;;6.10;99.90;;;;;;5013193;28;20207;-73
2022/12/21 04:48:31;;;;;;;32.00;29.40;;;6.20;99.90;;;;;;5013688;28;20301;-73
2022/12/21 04:51:06;;;;;;;71.07;66.33;;;6.20;99.90;;;;;;5018951;28;20179;-73
2022/12/21 04:53:32;;;;;;;58.20;54.23;;;6.20;99.90;;;;;;5034785;28;20221;-73
2022/12/21 04:55:57;;;;;;;52.10;48.43;;;6.10;99.90;;;;;;5034298;28;20203;-73
2022/12/21 04:58:23;;;;;;;89.90;84.23;;;6.10;99.90;;;;;;5053027;28;20626;-73
2022/12/21 05:00:49;;;;;;;33.70;31.23;;;6.00;99.90;;;;;;5053652;28;20182;-73
2022/12/21 05:03:15;;;;;;;45.23;42.07;;;6.10;99.90;;;;;;5053542;28;20185;-73
2022/12/21 05:05:41;;;;;;;46.40;43.07;;;6.10;99.90;;;;;;5052035;28;20194;-73
2022/12/21 05:08:06;;;;;;;28.20;25.83;;;6.10;99.90;;;;;;5051834;28;20635;-73
2022/12/21 05:10:32;;;;;;;42.30;39.07;;;6.10;99.90;;;;;;5033532;28;20694;-73
2022/12/21 05:12:58;;;;;;;54.43;50.60;;;6.10;99.90;;;;;;5033460;28;20191;-73
2022/12/21 05:15:24;;;;;;;59.67;55.80;;;6.10;99.90;;;;;;5033247;28;20721;-73
2022/12/21 05:17:50;;;;;;;35.27;32.70;;;6.10;99.90;;;;;;5033279;28;20222;-73
2022/12/21 05:20:15;;;;;;;42.63;39.53;;;6.10;99.90;;;;;;5033293;28;20181;-73
2022/12/21 05:22:44;;;;;;;108.83;102.43;;;6.10;99.90;;;;;;5033533;28;20198;-73
2022/12/21 05:25:10;;;;;;;60.57;56.47;;;6.10;99.90;;;;;;5033768;28;20210;-73
2022/12/21 05:27:36;;;;;;;72.77;68.43;;;6.10;99.90;;;;;;5032805;28;20273;-73
2022/12/21 05:30:02;;;;;;;61.67;57.77;;;6.20;99.90;;;;;;5033211;28;20198;-73
2022/12/21 05:32:28;;;;;;;70.93;66.77;;;6.30;99.90;;;;;;5033291;28;20183;-72
2022/12/21 05:34:53;;;;;;;87.13;82.03;;;6.30;99.90;;;;;;5033243;28;20170;-73
2022/12/21 05:37:19;;;;;;;132.20;124.80;;;6.30;99.90;;;;;;5031692;28;20190;-67
2022/12/21 05:39:45;;;;;;;88.90;83.80;;;6.30;99.90;;;;;;5033244;28;20179;-67
2022/12/21 05:42:11;;;;;;;102.00;95.93;;;6.40;99.90;;;;;;5032904;28;20198;-68
2022/12/21 05:44:38;;;;;;;114.43;108.07;;;6.40;99.90;;;;;;5032990;28;20259;-68
2022/12/21 05:47:04;;;;;;;42.50;39.23;;;6.30;99.90;;;;;;5052428;28;20690;-68
2022/12/21 05:49:30;;;;;;;67.80;63.83;;;6.30;99.90;;;;;;5052434;28;20264;-69
2022/12/21 05:51:55;;;;;;;23.03;20.93;;;6.30;99.90;;;;;;5052390;28;20263;-68
2022/12/21 05:54:21;;;;;;;31.27;28.80;;;6.30;99.90;;;;;;5053004;28;20193;-68
2022/12/21 05:56:47;;;;;;;32.33;29.77;;;6.40;99.90;;;;;;5051799;28;20212;-68
2022/12/21 05:59:12;;;;;;;22.93;20.83;;;6.40;99.90;;;;;;5052537;28;20323;-69
2022/12/21 06:01:38;;;;;;;27.93;25.93;;;6.50;99.90;;;;;;5052404;28;20204;-66
2022/12/21 06:04:04;;;;;;;23.53;21.67;;;6.50;99.90;;;;;;5052590;28;20221;-65
2022/12/21 06:06:30;;;;;;;20.60;18.73;;;6.50;99.90;;;;;;5052303;28;20285;-65
2022/12/21 06:08:56;;;;;;;24.87;22.50;;;6.60;99.90;;;;;;5050941;28;20293;-65
2022/12/21 06:11:23;;;;;;;21.17;19.37;;;6.60;99.90;;;;;;5052190;28;20715;-65
2022/12/21 06:13:50;;;;;;;22.57;20.23;;;6.60;99.90;;;;;;5051166;28;20319;-66
2022/12/21 06:16:18;;;;;;;63.57;59.17;;;6.60;99.90;;;;;;5052179;28;20803;-66
2022/12/21 06:18:45;;;;;;;98.67;93.10;;;6.60;99.90;;;;;;5050702;28;20193;-66
2022/12/21 06:21:12;;;;;;;48.93;45.73;;;6.60;99.90;;;;;;5052363;28;20241;-66
2022/12/21 06:23:39;;;;;;;56.27;52.40;;;6.70;99.90;;;;;;5052215;28;20193;-66
2022/12/21 06:26:06;;;;;;;58.17;54.13;;;6.70;99.90;;;;;;5051832;28;20698;-66
2022/12/21 06:28:33;;;;;;;20.83;18.73;;;6.70;99.90;;;;;;5051594;28;20757;-66
2022/12/21 06:31:11;;;;;;;26.30;23.93;;;6.70;99.90;;;;;;5052041;28;20209;-66
2022/12/21 06:33:37;;;;;;;34.07;31.83;;;6.70;99.90;;;;;;5051500;28;20182;-65
2022/12/21 06:36:04;;;;;;;27.97;25.50;;;6.60;99.90;;;;;;5051700;28;20264;-65
2022/12/21 06:38:31;;;;;;;45.80;42.43;;;6.60;99.90;;;;;;5051012;28;20192;-66
2022/12/21 06:40:59;;;;;;;34.67;19.90;;;6.60;99.90;;;;;;5051435;28;20550;-65
2022/12/21 06:43:27;;;;;;;23.80;15.83;;;6.70;99.90;;;;;;5051354;28;20584;-65
2022/12/21 06:45:58;;;;;;;25.43;16.70;;;6.80;99.90;;;;;;5040757;28;20611;-66
2022/12/21 06:48:25;;;;;;;19.90;17.97;;;6.90;99.90;;;;;;5030800;28;20257;-66
2022/12/21 06:50:54;;;;;;;17.47;12.60;;;7.00;99.90;;;;;;5031532;28;20203;-66
2022/12/21 06:53:25;;;;;;;20.93;16.50;;;7.00;99.90;;;;;;5031264;28;20186;-66
2022/12/21 06:56:01;;;;;;;23.13;20.53;;;7.00;99.90;;;;;;5030925;28;20205;-66
2022/12/21 06:58:27;;;;;;;55.17;51.17;;;6.90;99.90;;;;;;5030961;28;20182;-66
2022/12/21 07:00:53;;;;;;;31.30;28.43;;;6.90;99.90;;;;;;5031624;28;20179;-64
2022/12/21 07:03:19;;;;;;;18.23;16.47;;;6.90;99.90;;;;;;5031313;28;20225;-65
2022/12/21 07:05:45;;;;;;;22.07;17.50;;;7.00;99.90;;;;;;5031030;28;20205;-64
2022/12/21 07:08:11;;;;;;;20.43;18.30;;;7.00;99.90;;;;;;5030716;28;20219;-63
2022/12/21 07:10:40;;;;;;;18.33;16.53;;;6.90;99.90;;;;;;5031031;28;20221;-64
2022/12/21 07:13:05;;;;;;;24.40;22.23;;;6.90;99.90;;;;;;5031301;28;20183;-64
2022/12/21 07:15:32;;;;;;;28.10;25.47;;;6.90;99.90;;;;;;5058827;23;20680;-64
2022/12/21 07:17:58;;;;;;;32.93;29.90;;;7.00;99.90;;;;;;5089802;28;20189;-65
2022/12/21 07:20:24;;;;;;;37.43;33.73;;;7.10;99.90;;;;;;5091382;28;20201;-66
2022/12/21 07:22:50;;;;;;;26.77;24.00;;;7.10;99.90;;;;;;5091598;28;20250;-67
2022/12/21 07:25:16;;;;;;;21.90;19.60;;;7.00;99.90;;;;;;5089671;28;20181;-67
2022/12/21 07:27:41;;;;;;;30.17;27.87;;;7.00;99.90;;;;;;5071360;28;20189;-67
2022/12/21 07:30:08;;;;;;;27.07;22.20;;;6.90;99.90;;;;;;5071252;28;20201;-67
2022/12/21 07:32:34;;;;;;;38.90;35.80;;;6.90;99.90;;;;;;5069649;28;20181;-67
2022/12/21 07:35:00;;;;;;;65.27;61.00;;;6.80;99.90;;;;;;5069524;28;20181;-67
2022/12/21 07:37:26;;;;;;;22.30;18.40;;;6.90;99.90;;;;;;5070848;28;20255;-67
2022/12/21 07:39:51;;;;;;;21.53;17.40;;;7.00;99.90;;;;;;5071857;28;20173;-67
2022/12/21 07:42:17;;;;;;;20.13;18.43;;;7.00;99.90;;;;;;5078988;28;20185;-67
2022/12/21 07:44:43;;;;;;;36.10;33.67;;;7.20;99.90;;;;;;5072305;28;20185;-67
2022/12/21 07:47:08;;;;;;;28.47;25.80;;;7.40;99.90;;;;;;5071567;28;20201;-67
2022/12/21 07:49:34;;;;;;;39.30;21.87;;;7.50;99.90;;;;;;5071107;28;20202;-67
2022/12/21 07:52:00;;;;;;;34.97;28.83;;;7.50;99.90;;;;;;5071304;28;20213;-67
2022/12/21 07:54:26;;;;;;;28.73;25.90;;;7.50;99.90;;;;;;5071084;28;20208;-67
2022/12/21 07:56:53;;;;;;;19.97;17.60;;;7.40;99.90;;;;;;5069490;28;20706;-67
2022/12/21 07:59:19;;;;;;;17.70;16.00;;;7.40;99.90;;;;;;5069905;28;20181;-67
2022/12/21 08:01:45;;;;;;;28.97;25.97;;;7.40;99.90;;;;;;5071170;28;20555;-67
2022/12/21 08:04:10;;;;;;;28.10;21.33;;;7.30;99.90;;;;;;5070997;28;20177;-67
2022/12/21 08:06:36;;;;;;;31.83;28.53;;;7.20;99.90;;;;;;5070935;28;20205;-67
2022/12/21 08:09:03;;;;;;;27.93;19.43;;;7.20;99.90;;;;;;5069309;28;20235;-67
2022/12/21 08:11:29;;;;;;;22.80;20.47;;;7.20;99.90;;;;;;5070891;28;20221;-67
2022/12/21 08:13:55;;;;;;;25.40;21.37;;;7.20;99.90;;;;;;5070954;28;20759;-67
2022/12/21 08:16:21;;;;;;;21.33;19.30;;;7.20;99.90;;;;;;5071566;28;20228;-67
2022/12/21 08:18:48;;;;;;;23.23;15.47;;;7.30;99.90;;;;;;5074729;28;20190;-67
2022/12/21 08:21:15;;;;;;;18.57;15.40;;;7.50;99.90;;;;;;5074822;28;20255;-67
2022/12/21 08:23:41;;;;;;;17.43;15.63;;;7.60;99.90;;;;;;5075197;28;20665;-67
2022/12/21 08:26:10;;;;;;;22.03;16.53;;;7.50;99.90;;;;;;5074514;28;20236;-67
2022/12/21 08:28:36;;;;;;;22.03;19.53;;;7.50;99.90;;;;;;5074141;28;20241;-67
2022/12/21 08:31:04;;;;;;;26.43;23.37;;;7.50;99.90;;;;;;5074528;28;20643;-67
2022/12/21 08:33:30;;;;;;;35.73;16.03;;;7.50;99.90;;;;;;5074482;28;20212;-68
2022/12/21 08:35:56;;;;;;;27.53;25.43;;;7.50;99.90;;;;;;5074402;28;20233;-67
2022/12/21 08:38:22;;;;;;;20.03;17.07;;;7.50;99.90;;;;;;5073931;28;20696;-68
2022/12/21 08:40:48;;;;;;;28.27;15.77;;;7.80;99.90;;;;;;5073178;28;20190;-68
2022/12/21 08:43:14;;;;;;;20.83;13.77;;;7.90;99.90;;;;;;5074611;28;20184;-67
2022/12/21 08:45:39;;;;;;;18.17;13.53;;;7.80;99.90;;;;;;5074152;28;20198;-67
2022/12/21 08:48:06;;;;;;;62.97;19.73;;;7.90;99.90;;;;;;5073775;28;20210;-67
2022/12/21 08:50:31;;;;;;;21.63;17.53;;;7.90;99.90;;;;;;5074219;28;20186;-68
2022/12/21 08:52:57;;;;;;;15.80;14.20;;;8.00;99.90;;;;;;5074182;28;20178;-67
2022/12/21 08:55:23;;;;;;;62.83;19.27;;;8.00;99.90;;;;;;5073863;28;20263;-67
2022/12/21 08:57:49;;;;;;;39.97;21.20;;;8.00;99.90;;;;;;5074088;28;20177;-67
2022/12/21 09:00:15;;;;;;;76.73;17.37;;;8.00;99.90;;;;;;5072826;28;20597;-67
2022/12/21 09:02:40;;;;;;;19.37;14.27;;;7.90;99.90;;;;;;5074135;28;20177;-67
2022/12/21 09:05:06;;;;;;;316.73;24.93;;;7.90;99.90;;;;;;5073917;28;20174;-67
2022/12/21 09:07:32;;;;;;;29.07;15.17;;;8.00;99.90;;;;;;5073530;28;20255;-67
2022/12/21 09:09:58;;;;;;;26.87;13.60;;;8.00;99.90;;;;;;5073865;28;20197;-67
2022/12/21 09:12:24;;;;;;;39.27;14.03;;;8.10;99.90;;;;;;5073793;28;20215;-67
2022/12/21 09:14:49;;;;;;;28.10;13.43;;;8.10;99.90;;;;;;5073712;28;20185;-67
2022/12/21 09:17:15;;;;;;;14.07;12.23;;;8.20;99.90;;;;;;5073268;28;20221;-67
2022/12/21 09:19:41;;;;;;;16.07;12.63;;;8.30;99.90;;;;;;5073703;28;20182;-67
2022/12/21 09:22:06;;;;;;;12.80;11.10;;;8.30;99.90;;;;;;5073678;28;20178;-68
2022/12/21 09:24:32;;;;;;;14.33;10.63;;;8.30;99.90;;;;;;5073600;28;20272;-67
2022/12/21 09:26:58;;;;;;;13.90;9.97;;;8.40;99.90;;;;;;5074256;28;20220;-67
2022/12/21 09:29:24;;;;;;;17.37;9.27;;;8.40;99.90;;;;;;5084653;28;20209;-67
2022/12/21 09:31:50;;;;;;;14.70;9.20;;;8.50;99.90;;;;;;5086069;28;20174;-67
2022/12/21 09:34:18;;;;;;;13.07;8.57;;;8.50;99.90;;;;;;5081158;28;20189;-68
2022/12/21 09:36:45;;;;;;;7.27;6.60;;;8.50;99.90;;;;;;5074078;28;20247;-67
2022/12/21 09:39:11;;;;;;;8.87;7.70;;;8.40;99.90;;;;;;5073296;28;20190;-69
2022/12/21 09:41:57;;;;;;;6.33;5.93;;;8.60;99.90;;;;;;5073441;28;20270;-67
2022/12/21 09:44:58;;;;;;;7.97;6.93;;;8.60;99.90;;;;;;5073102;28;20193;-67
2022/12/21 09:47:35;;;;;;;8.40;6.90;;;8.60;99.90;;;;;;5072491;28;20205;-67
2022/12/21 09:50:07;;;;;;;10.53;6.93;;;8.70;99.90;;;;;;5073286;28;20213;-67
2022/12/21 09:52:41;;;;;;;6.70;6.30;;;8.70;99.90;;;;;;5073083;28;20208;-67
2022/12/21 09:55:20;;;;;;;12.03;7.60;;;8.60;99.90;;;;;;5072809;28;20212;-67
2022/12/21 09:57:49;;;;;;;8.33;7.03;;;8.70;99.90;;;;;;5072761;28;20216;-67
2022/12/21 10:00:19;;;;;;;11.77;7.07;;;8.80;99.90;;;;;;5073177;28;20193;-67
2022/12/21 10:03:12;;;;;;;6.97;6.23;;;8.80;99.90;;;;;;5072841;28;20265;-68
2022/12/21 10:05:51;;;;;;;9.90;7.40;;;8.80;99.90;;;;;;5072632;28;20227;-67
2022/12/21 10:08:20;;;;;;;9.63;8.60;;;8.80;99.90;;;;;;5072480;28;20591;-69
2022/12/21 10:11:29;;;;;;;7.87;7.33;;;8.80;99.90;;;;;;5073216;28;20541;-67
2022/12/21 10:14:31;;;;;;;6.83;6.13;;;8.80;99.90;;;;;;5072554;28;20185;-67
2022/12/21 10:17:30;;;;;;;6.10;5.70;;;8.90;99.90;;;;;;5072159;28;20297;-67
2022/12/21 10:20:16;;;;;;;7.00;6.33;;;8.90;99.90;;;;;;5072522;28;20323;-67
2022/12/21 10:22:47;;;;;;;8.00;7.20;;;9.00;99.90;;;;;;5072983;28;20527;-66
2022/12/21 10:25:19;;;;;;;7.63;6.77;;;9.10;99.90;;;;;;5071096;28;20181;-66
2022/12/21 10:28:04;;;;;;;8.63;7.07;;;9.10;99.90;;;;;;5071692;28;20216;-66
2022/12/21 10:30:32;;;;;;;7.53;6.73;;;9.20;99.90;;;;;;5072201;28;20224;-67
2022/12/21 10:32:59;;;;;;;9.47;7.40;;;9.30;99.90;;;;;;5072432;28;20177;-67
2022/12/21 10:35:34;;;;;;;9.60;8.70;;;9.30;99.90;;;;;;5072115;28;20288;-67
2022/12/21 10:38:00;;;;;;;8.80;7.47;;;9.40;99.90;;;;;;5071914;28;20190;-67
2022/12/21 10:40:31;;;;;;;10.97;10.20;;;9.50;99.90;;;;;;5071603;28;20211;-67
2022/12/21 10:42:58;;;;;;;12.03;7.77;;;9.50;99.90;;;;;;5072198;28;20554;-67
2022/12/21 10:45:25;;;;;;;7.10;6.50;;;9.50;99.90;;;;;;5072037;28;20209;-67
2022/12/21 10:47:51;;;;;;;6.30;5.90;;;9.40;99.90;;;;;;5071565;28;20181;-67
2022/12/21 10:50:27;;;;;;;5.70;5.30;;;9.30;99.90;;;;;;5071816;28;20185;-67
2022/12/21 10:52:55;;;;;;;6.90;6.33;;;9.30;99.90;;;;;;5071970;28;20177;-67
2022/12/21 10:55:31;;;;;;;6.57;6.10;;;9.20;99.90;;;;;;5071707;28;20246;-68
2022/12/21 10:58:17;;;;;;;8.27;7.50;;;9.20;99.90;;;;;;5070258;28;20180;-68
2022/12/21 11:01:02;;;;;;;7.47;6.97;;;9.20;99.90;;;;;;5071805;28;20185;-68
2022/12/21 11:03:34;;;;;;;7.40;6.70;;;9.40;99.90;;;;;;5071600;28;20553;-68
2022/12/21 11:06:18;;;;;;;7.60;7.00;;;9.50;99.90;;;;;;5071684;28;20208;-68
2022/12/21 11:08:47;;;;;;;8.23;6.70;;;9.70;99.90;;;;;;5071307;28;20297;-68
2022/12/21 11:11:27;;;;;;;8.30;6.87;;;9.90;99.90;;;;;;5070536;28;20545;-69
2022/12/21 11:14:01;;;;;;;10.27;9.40;;;10.00;99.90;;;;;;5071508;28;20181;-68
2022/12/21 11:16:30;;;;;;;43.83;41.40;;;10.20;99.90;;;;;;5071447;28;20221;-67
2022/12/21 11:19:01;;;;;;;36.37;34.30;;;10.30;99.90;;;;;;5073278;28;20562;-67
2022/12/21 11:21:36;;;;;;;21.10;19.20;;;10.40;99.90;;;;;;5088271;28;20308;-67
2022/12/21 11:24:19;;;;;;;11.27;8.87;;;10.50;99.90;;;;;;5081142;28;20184;-67
2022/12/21 11:26:56;;;;;;;9.00;8.23;;;10.60;99.90;;;;;;5071925;28;20208;-66
2022/12/21 11:29:27;;;;;;;14.17;13.43;;;10.80;99.90;;;;;;5071683;28;20209;-67
2022/12/21 11:31:55;;;;;;;15.33;14.53;;;10.70;99.90;;;;;;5071649;28;20174;-67
2022/12/21 11:34:33;;;;;;;15.90;15.03;;;10.80;99.90;;;;;;5071314;28;20199;-67
2022/12/21 11:37:01;;;;;;;10.83;10.23;;;10.80;99.90;;;;;;5071055;28;20603;-66
2022/12/21 11:39:27;;;;;;;10.17;9.47;;;10.80;99.90;;;;;;5071395;28;20665;-67
2022/12/21 11:41:54;;;;;;;9.67;8.77;;;10.90;99.90;;;;;;5070075;28;20717;-67
2022/12/21 11:44:29;;;;;;;12.20;11.20;;;10.90;99.90;;;;;;5071206;28;20230;-67
2022/12/21 11:47:19;;;;;;;12.43;8.47;;;10.90;99.90;;;;;;5070849;28;20205;-67
2022/12/21 11:49:56;;;;;;;8.63;7.97;;;10.90;99.90;;;;;;5071314;28;20220;-67
2022/12/21 11:53:00;;;;;;;12.90;8.33;;;10.90;99.90;;;;;;5077680;28;20180;-67
2022/12/21 11:56:00;;;;;;;7.90;7.10;;;10.90;99.90;;;;;;5076541;28;20208;-67
2022/12/21 11:58:49;;;;;;;9.93;6.57;;;10.90;99.90;;;;;;5077343;28;20284;-66
2022/12/21 12:01:30;;;;;;;8.57;7.77;;;10.90;99.90;;;;;;5077960;28;20197;-66
2022/12/21 12:04:24;;;;;;;10.73;9.67;;;11.00;99.90;;;;;;5077696;28;20327;-66
2022/12/21 12:07:27;;;;;;;7.97;7.17;;;11.00;99.90;;;;;;5077351;28;20205;-67
2022/12/21 12:09:58;;;;;;;14.53;13.77;;;11.10;99.90;;;;;;5077517;28;20241;-67
2022/12/21 12:12:57;;;;;;;24.10;22.60;;;11.90;99.90;;;;;;5077475;28;20181;-66
2022/12/21 12:16:04;;;;;;;8.77;8.27;;;12.70;99.90;;;;;;5077184;28;20298;-66
2022/12/21 12:19:14;;;;;;;12.83;11.83;;;14.40;99.90;;;;;;5077259;28;20195;-67
2022/12/21 12:21:49;;;;;;;14.50;13.60;;;15.50;99.90;;;;;;5077448;28;20241;-66
2022/12/21 12:24:43;;;;;;;16.43;15.57;;;17.20;99.90;;;;;;5077336;28;20195;-67
2022/12/21 12:27:44;;;;;;;8.87;8.27;;;19.20;99.90;;;;;;5077341;28;20564;-67
2022/12/21 12:30:17;;;;;;;13.63;12.90;;;19.50;99.90;;;;;;5077930;28;20186;-67
2022/12/21 12:32:43;;;;;;;7.77;7.27;;;18.50;99.90;;;;;;5076181;28;20182;-67
2022/12/21 12:35:24;;;;;;;10.77;10.00;;;16.20;99.90;;;;;;5077419;28;20177;-67
2022/12/21 12:38:11;;;;;;;10.83;10.27;;;14.90;99.90;;;;;;5077044;28;20230;-66
2022/12/21 12:40:55;;;;;;;6.77;6.40;;;13.60;99.90;;;;;;5077374;28;20177;-66
2022/12/21 12:43:27;;;;;;;21.37;20.30;;;12.80;99.90;;;;;;5077356;28;20273;-66
2022/12/21 12:46:08;;;;;;;27.93;26.53;;;13.30;99.90;;;;;;5077289;28;20200;-66
2022/12/21 12:48:55;;;;;;;13.03;12.37;;;13.80;99.90;;;;;;5076849;28;20681;-67
2022/12/21 12:51:51;;;;;;;23.20;21.77;;;14.20;99.90;;;;;;5077278;28;20263;-68
2022/12/21 12:54:31;;;;;;;28.13;26.73;;;14.20;99.90;;;;;;5068000;28;20236;-68
2022/12/21 12:57:19;;;;;;;29.20;27.60;;;13.70;99.90;;;;;;5077008;28;20267;-68
2022/12/21 12:59:55;;;;;;;23.37;22.10;;;13.20;99.90;;;;;;5077267;28;20195;-68
2022/12/21 13:02:48;;;;;;;23.27;22.07;;;12.80;99.90;;;;;;5074980;28;20185;-68
2022/12/21 13:05:24;;;;;;;8.00;7.40;;;12.60;99.90;;;;;;5068089;28;20196;-68
2022/12/21 13:08:16;;;;;;;6.90;6.30;;;12.40;99.90;;;;;;5077034;28;20188;-67
2022/12/21 13:11:00;;;;;;;9.03;8.53;;;12.20;99.90;;;;;;5085769;28;20238;-67
2022/12/21 13:13:35;;;;;;;13.83;13.13;;;12.10;99.90;;;;;;5074076;28;20185;-67